sensor_id;sensor_type;location;lat;lon;timestamp;temperature;humidity
15543;DHT22;7873;52.230;12.856;2023-08-12T00:01:09;24.10;55.70
15543;DHT22;7873;52.230;12.856;2023-08-12T00:03:36;24.10;55.60
15543;DHT22;7873;52.230;12.856;2023-08-12T00:06:02;24.10;55.70
15543;DHT22;7873;52.230;12.856;2023-08-12T00:08:30;24.00;55.70
15543;DHT22;7873;52.230;12.856;2023-08-12T00:10:57;24.10;55.70
15543;DHT22;7873;52.230;12.856;2023-08-12T00:13:25;24.00;55.70
15543;DHT22;7873;52.230;12.856;2023-08-12T00:15:52;24.00;55.70
15543;DHT22;7873;52.230;12.856;2023-08-12T00:18:18;24.00;55.70
15543;DHT22;7873;52.230;12.856;2023-08-12T00:20:45;24.00;55.70
15543;DHT22;7873;52.230;12.856;2023-08-12T00:23:12;24.00;55.70
15543;DHT22;7873;52.230;12.856;2023-08-12T00:25:38;24.00;55.70
15543;DHT22;7873;52.230;12.856;2023-08-12T00:28:05;24.00;55.70
15543;DHT22;7873;52.230;12.856;2023-08-12T00:30:33;24.00;55.70
15543;DHT22;7873;52.230;12.856;2023-08-12T00:33:00;24.00;55.70
15543;DHT22;7873;52.230;12.856;2023-08-12T00:35:27;24.00;55.70
15543;DHT22;7873;52.230;12.856;2023-08-12T00:37:54;24.00;55.70
15543;DHT22;7873;52.230;12.856;2023-08-12T00:40:20;24.00;55.70
15543;DHT22;7873;52.230;12.856;2023-08-12T00:42:47;24.00;55.80
15543;DHT22;7873;52.230;12.856;2023-08-12T00:45:13;23.90;55.70
15543;DHT22;7873;52.230;12.856;2023-08-12T00:47:41;24.00;55.80
15543;DHT22;7873;52.230;12.856;2023-08-12T00:50:08;23.90;55.70
15543;DHT22;7873;52.230;12.856;2023-08-12T00:52:38;23.90;55.70
15543;DHT22;7873;52.230;12.856;2023-08-12T00:55:06;23.90;55.70
15543;DHT22;7873;52.230;12.856;2023-08-12T00:57:33;24.00;55.80
15543;DHT22;7873;52.230;12.856;2023-08-12T01:00:00;24.00;55.80
15543;DHT22;7873;52.230;12.856;2023-08-12T01:02:29;23.90;55.70
15543;DHT22;7873;52.230;12.856;2023-08-12T01:04:57;23.90;55.70
15543;DHT22;7873;52.230;12.856;2023-08-12T01:07:24;24.00;55.60
15543;DHT22;7873;52.230;12.856;2023-08-12T01:09:51;24.00;55.60
15543;DHT22;7873;52.230;12.856;2023-08-12T01:12:18;24.00;55.70
15543;DHT22;7873;52.230;12.856;2023-08-12T01:14:51;24.00;55.80
15543;DHT22;7873;52.230;12.856;2023-08-12T01:17:22;23.90;55.70
15543;DHT22;7873;52.230;12.856;2023-08-12T01:19:49;23.90;55.80
15543;DHT22;7873;52.230;12.856;2023-08-12T01:22:18;23.90;55.90
15543;DHT22;7873;52.230;12.856;2023-08-12T01:24:48;23.90;55.90
15543;DHT22;7873;52.230;12.856;2023-08-12T01:27:17;23.90;55.90
15543;DHT22;7873;52.230;12.856;2023-08-12T01:29:45;23.90;55.90
15543;DHT22;7873;52.230;12.856;2023-08-12T01:32:14;23.90;55.90
15543;DHT22;7873;52.230;12.856;2023-08-12T01:34:50;23.90;55.90
15543;DHT22;7873;52.230;12.856;2023-08-12T01:37:22;23.90;55.80
15543;DHT22;7873;52.230;12.856;2023-08-12T01:39:53;23.90;55.80
15543;DHT22;7873;52.230;12.856;2023-08-12T01:42:23;23.90;55.80
15543;DHT22;7873;52.230;12.856;2023-08-12T01:44:50;23.90;55.80
15543;DHT22;7873;52.230;12.856;2023-08-12T01:47:17;23.90;55.80
15543;DHT22;7873;52.230;12.856;2023-08-12T01:49:44;23.90;55.70
15543;DHT22;7873;52.230;12.856;2023-08-12T01:52:11;23.90;55.70
15543;DHT22;7873;52.230;12.856;2023-08-12T01:54:38;23.90;55.70
15543;DHT22;7873;52.230;12.856;2023-08-12T01:57:06;23.90;55.70
15543;DHT22;7873;52.230;12.856;2023-08-12T01:59:33;23.90;55.70
15543;DHT22;7873;52.230;12.856;2023-08-12T02:02:00;23.90;55.70
15543;DHT22;7873;52.230;12.856;2023-08-12T02:04:27;23.90;55.70
15543;DHT22;7873;52.230;12.856;2023-08-12T02:06:54;23.90;55.70
15543;DHT22;7873;52.230;12.856;2023-08-12T02:09:20;23.90;55.70
15543;DHT22;7873;52.230;12.856;2023-08-12T02:11:47;23.90;55.70
15543;DHT22;7873;52.230;12.856;2023-08-12T02:14:16;23.90;55.70
15543;DHT22;7873;52.230;12.856;2023-08-12T02:16:42;23.90;55.70
15543;DHT22;7873;52.230;12.856;2023-08-12T02:19:09;23.90;55.70
15543;DHT22;7873;52.230;12.856;2023-08-12T02:21:35;23.90;55.70
15543;DHT22;7873;52.230;12.856;2023-08-12T02:24:02;23.90;55.60
15543;DHT22;7873;52.230;12.856;2023-08-12T02:26:29;23.90;55.60
15543;DHT22;7873;52.230;12.856;2023-08-12T02:28:56;23.90;55.60
15543;DHT22;7873;52.230;12.856;2023-08-12T02:31:24;23.90;55.60
15543;DHT22;7873;52.230;12.856;2023-08-12T02:33:51;23.90;55.50
15543;DHT22;7873;52.230;12.856;2023-08-12T02:36:17;23.90;55.40
15543;DHT22;7873;52.230;12.856;2023-08-12T02:38:44;23.90;55.50
15543;DHT22;7873;52.230;12.856;2023-08-12T02:41:11;23.90;55.50
15543;DHT22;7873;52.230;12.856;2023-08-12T02:43:38;23.90;55.50
15543;DHT22;7873;52.230;12.856;2023-08-12T02:46:04;23.90;55.30
15543;DHT22;7873;52.230;12.856;2023-08-12T02:48:33;23.90;55.20
15543;DHT22;7873;52.230;12.856;2023-08-12T02:51:01;23.90;55.30
15543;DHT22;7873;52.230;12.856;2023-08-12T02:53:28;23.90;55.30
15543;DHT22;7873;52.230;12.856;2023-08-12T02:55:55;23.90;55.30
15543;DHT22;7873;52.230;12.856;2023-08-12T02:58:22;23.90;55.40
15543;DHT22;7873;52.230;12.856;2023-08-12T03:00:48;23.90;55.40
15543;DHT22;7873;52.230;12.856;2023-08-12T03:03:15;23.90;55.20
15543;DHT22;7873;52.230;12.856;2023-08-12T03:05:46;23.90;55.20
15543;DHT22;7873;52.230;12.856;2023-08-12T03:08:12;24.00;55.00
15543;DHT22;7873;52.230;12.856;2023-08-12T03:10:40;24.00;55.00
15543;DHT22;7873;52.230;12.856;2023-08-12T03:13:06;24.00;55.20
15543;DHT22;7873;52.230;12.856;2023-08-12T03:15:33;24.00;55.00
15543;DHT22;7873;52.230;12.856;2023-08-12T03:18:00;24.00;54.90
15543;DHT22;7873;52.230;12.856;2023-08-12T03:20:27;24.00;55.00
15543;DHT22;7873;52.230;12.856;2023-08-12T03:22:55;24.00;54.90
15543;DHT22;7873;52.230;12.856;2023-08-12T03:25:21;24.10;54.70
15543;DHT22;7873;52.230;12.856;2023-08-12T03:27:48;24.10;54.70
15543;DHT22;7873;52.230;12.856;2023-08-12T03:30:15;24.10;54.70
15543;DHT22;7873;52.230;12.856;2023-08-12T03:32:41;24.00;54.80
15543;DHT22;7873;52.230;12.856;2023-08-12T03:35:08;24.00;54.90
15543;DHT22;7873;52.230;12.856;2023-08-12T03:37:35;23.90;54.90
15543;DHT22;7873;52.230;12.856;2023-08-12T03:40:03;24.00;54.90
15543;DHT22;7873;52.230;12.856;2023-08-12T03:42:31;24.00;54.70
15543;DHT22;7873;52.230;12.856;2023-08-12T03:44:58;24.00;54.70
15543;DHT22;7873;52.230;12.856;2023-08-12T03:47:25;24.00;54.70
15543;DHT22;7873;52.230;12.856;2023-08-12T03:49:51;24.00;54.70
15543;DHT22;7873;52.230;12.856;2023-08-12T03:52:18;24.00;54.70
15543;DHT22;7873;52.230;12.856;2023-08-12T03:54:45;24.00;54.60
15543;DHT22;7873;52.230;12.856;2023-08-12T03:57:13;24.00;54.60
15543;DHT22;7873;52.230;12.856;2023-08-12T03:59:39;24.00;54.60
15543;DHT22;7873;52.230;12.856;2023-08-12T04:02:06;24.00;54.50
15543;DHT22;7873;52.230;12.856;2023-08-12T04:04:32;24.00;54.60
15543;DHT22;7873;52.230;12.856;2023-08-12T04:06:59;24.10;54.50
15543;DHT22;7873;52.230;12.856;2023-08-12T04:09:26;24.10;54.50
15543;DHT22;7873;52.230;12.856;2023-08-12T04:11:53;24.00;54.50
15543;DHT22;7873;52.230;12.856;2023-08-12T04:14:21;24.00;54.50
15543;DHT22;7873;52.230;12.856;2023-08-12T04:16:47;24.00;54.50
15543;DHT22;7873;52.230;12.856;2023-08-12T04:19:14;24.10;54.50
15543;DHT22;7873;52.230;12.856;2023-08-12T04:21:41;24.00;54.60
15543;DHT22;7873;52.230;12.856;2023-08-12T04:24:12;24.00;55.00
15543;DHT22;7873;52.230;12.856;2023-08-12T04:26:39;24.10;54.70
15543;DHT22;7873;52.230;12.856;2023-08-12T04:29:05;24.10;54.70
15543;DHT22;7873;52.230;12.856;2023-08-12T04:31:33;24.10;54.90
15543;DHT22;7873;52.230;12.856;2023-08-12T04:34:00;24.10;55.00
15543;DHT22;7873;52.230;12.856;2023-08-12T04:36:27;24.10;54.50
15543;DHT22;7873;52.230;12.856;2023-08-12T04:38:53;24.20;54.70
15543;DHT22;7873;52.230;12.856;2023-08-12T04:41:20;24.30;55.40
15543;DHT22;7873;52.230;12.856;2023-08-12T04:43:49;24.30;54.50
15543;DHT22;7873;52.230;12.856;2023-08-12T04:46:15;24.30;54.80
15543;DHT22;7873;52.230;12.856;2023-08-12T04:48:44;24.30;54.70
15543;DHT22;7873;52.230;12.856;2023-08-12T04:51:11;24.40;54.80
15543;DHT22;7873;52.230;12.856;2023-08-12T04:53:37;24.30;54.70
15543;DHT22;7873;52.230;12.856;2023-08-12T04:56:04;24.30;54.80
15543;DHT22;7873;52.230;12.856;2023-08-12T04:58:31;24.30;54.80
15543;DHT22;7873;52.230;12.856;2023-08-12T05:00:57;24.40;54.70
15543;DHT22;7873;52.230;12.856;2023-08-12T05:03:24;24.40;54.70
15543;DHT22;7873;52.230;12.856;2023-08-12T05:05:52;24.30;54.70
15543;DHT22;7873;52.230;12.856;2023-08-12T05:08:19;24.30;54.80
15543;DHT22;7873;52.230;12.856;2023-08-12T05:10:46;24.30;55.00
15543;DHT22;7873;52.230;12.856;2023-08-12T05:13:13;24.30;54.70
15543;DHT22;7873;52.230;12.856;2023-08-12T05:15:40;24.40;54.70
15543;DHT22;7873;52.230;12.856;2023-08-12T05:18:07;24.40;54.80
15543;DHT22;7873;52.230;12.856;2023-08-12T05:20:33;24.40;54.70
15543;DHT22;7873;52.230;12.856;2023-08-12T05:23:01;24.40;54.90
15543;DHT22;7873;52.230;12.856;2023-08-12T05:25:28;24.40;55.00
15543;DHT22;7873;52.230;12.856;2023-08-12T05:27:55;24.30;54.70
15543;DHT22;7873;52.230;12.856;2023-08-12T05:30:21;24.20;55.10
15543;DHT22;7873;52.230;12.856;2023-08-12T05:32:48;24.20;55.30
15543;DHT22;7873;52.230;12.856;2023-08-12T05:35:15;24.10;55.30
15543;DHT22;7873;52.230;12.856;2023-08-12T05:37:41;24.10;55.70
15543;DHT22;7873;52.230;12.856;2023-08-12T05:40:10;24.20;55.90
15543;DHT22;7873;52.230;12.856;2023-08-12T05:42:37;24.30;55.40
15543;DHT22;7873;52.230;12.856;2023-08-12T05:45:04;24.50;55.10
15543;DHT22;7873;52.230;12.856;2023-08-12T05:47:31;24.70;54.70
15543;DHT22;7873;52.230;12.856;2023-08-12T05:49:58;24.60;55.00
15543;DHT22;7873;52.230;12.856;2023-08-12T05:52:24;24.70;54.90
15543;DHT22;7873;52.230;12.856;2023-08-12T05:54:51;24.80;54.70
15543;DHT22;7873;52.230;12.856;2023-08-12T05:57:19;24.70;54.80
15543;DHT22;7873;52.230;12.856;2023-08-12T05:59:45;24.80;54.70
15543;DHT22;7873;52.230;12.856;2023-08-12T06:02:12;24.70;54.90
15543;DHT22;7873;52.230;12.856;2023-08-12T06:04:39;24.80;54.80
15543;DHT22;7873;52.230;12.856;2023-08-12T06:07:06;24.90;54.70
15543;DHT22;7873;52.230;12.856;2023-08-12T06:09:32;24.90;54.50
15543;DHT22;7873;52.230;12.856;2023-08-12T06:11:59;24.80;54.70
15543;DHT22;7873;52.230;12.856;2023-08-12T06:14:27;24.80;54.90
15543;DHT22;7873;52.230;12.856;2023-08-12T06:16:54;24.90;54.70
15543;DHT22;7873;52.230;12.856;2023-08-12T06:19:20;24.80;54.70
15543;DHT22;7873;52.230;12.856;2023-08-12T06:21:47;24.70;55.10
15543;DHT22;7873;52.230;12.856;2023-08-12T06:24:14;24.80;55.20
15543;DHT22;7873;52.230;12.856;2023-08-12T06:26:40;24.80;54.90
15543;DHT22;7873;52.230;12.856;2023-08-12T06:29:07;24.80;55.00
15543;DHT22;7873;52.230;12.856;2023-08-12T06:31:35;24.60;55.20
15543;DHT22;7873;52.230;12.856;2023-08-12T06:34:02;24.40;55.80
15543;DHT22;7873;52.230;12.856;2023-08-12T06:36:28;24.30;56.30
15543;DHT22;7873;52.230;12.856;2023-08-12T06:38:55;24.20;56.40
15543;DHT22;7873;52.230;12.856;2023-08-12T06:41:22;24.30;56.40
15543;DHT22;7873;52.230;12.856;2023-08-12T06:43:48;24.20;56.50
15543;DHT22;7873;52.230;12.856;2023-08-12T06:46:15;24.20;56.50
15543;DHT22;7873;52.230;12.856;2023-08-12T06:48:43;24.20;56.70
15543;DHT22;7873;52.230;12.856;2023-08-12T06:51:10;24.20;56.60
15543;DHT22;7873;52.230;12.856;2023-08-12T06:53:37;24.30;56.50
15543;DHT22;7873;52.230;12.856;2023-08-12T06:56:04;24.10;56.70
15543;DHT22;7873;52.230;12.856;2023-08-12T06:58:31;24.00;57.30
15543;DHT22;7873;52.230;12.856;2023-08-12T07:00:58;24.00;57.70
15543;DHT22;7873;52.230;12.856;2023-08-12T07:03:25;23.90;57.80
15543;DHT22;7873;52.230;12.856;2023-08-12T07:05:53;23.90;57.90
15543;DHT22;7873;52.230;12.856;2023-08-12T07:08:20;23.90;57.80
15543;DHT22;7873;52.230;12.856;2023-08-12T07:10:47;23.90;58.00
15543;DHT22;7873;52.230;12.856;2023-08-12T07:13:13;23.80;58.60
15543;DHT22;7873;52.230;12.856;2023-08-12T07:15:40;23.70;58.80
15543;DHT22;7873;52.230;12.856;2023-08-12T07:18:07;23.80;58.60
15543;DHT22;7873;52.230;12.856;2023-08-12T07:20:33;23.80;58.50
15543;DHT22;7873;52.230;12.856;2023-08-12T07:23:01;23.70;58.60
15543;DHT22;7873;52.230;12.856;2023-08-12T07:25:28;23.70;58.90
15543;DHT22;7873;52.230;12.856;2023-08-12T07:27:55;23.80;58.70
15543;DHT22;7873;52.230;12.856;2023-08-12T07:30:21;23.80;58.70
15543;DHT22;7873;52.230;12.856;2023-08-12T07:32:48;23.80;58.80
15543;DHT22;7873;52.230;12.856;2023-08-12T07:35:15;23.80;58.80
15543;DHT22;7873;52.230;12.856;2023-08-12T07:37:41;23.90;58.80
15543;DHT22;7873;52.230;12.856;2023-08-12T07:40:10;23.80;59.00
15543;DHT22;7873;52.230;12.856;2023-08-12T07:42:37;23.90;59.20
15543;DHT22;7873;52.230;12.856;2023-08-12T07:45:05;23.80;59.60
15543;DHT22;7873;52.230;12.856;2023-08-12T07:47:32;23.70;59.90
15543;DHT22;7873;52.230;12.856;2023-08-12T07:49:59;23.70;59.90
15543;DHT22;7873;52.230;12.856;2023-08-12T07:52:25;23.70;60.20
15543;DHT22;7873;52.230;12.856;2023-08-12T07:54:52;23.80;59.70
15543;DHT22;7873;52.230;12.856;2023-08-12T07:57:20;23.80;59.80
15543;DHT22;7873;52.230;12.856;2023-08-12T07:59:49;23.90;59.40
15543;DHT22;7873;52.230;12.856;2023-08-12T08:02:16;24.10;59.20
15543;DHT22;7873;52.230;12.856;2023-08-12T08:04:42;24.00;59.30
15543;DHT22;7873;52.230;12.856;2023-08-12T08:07:10;24.00;59.60
15543;DHT22;7873;52.230;12.856;2023-08-12T08:09:37;24.00;59.40
15543;DHT22;7873;52.230;12.856;2023-08-12T08:12:04;24.00;59.40
15543;DHT22;7873;52.230;12.856;2023-08-12T08:14:32;24.00;59.70
15543;DHT22;7873;52.230;12.856;2023-08-12T08:16:59;23.90;60.00
15543;DHT22;7873;52.230;12.856;2023-08-12T08:19:25;24.00;60.00
15543;DHT22;7873;52.230;12.856;2023-08-12T08:21:52;23.90;60.50
15543;DHT22;7873;52.230;12.856;2023-08-12T08:24:19;24.00;60.20
15543;DHT22;7873;52.230;12.856;2023-08-12T08:26:45;23.90;61.10
15543;DHT22;7873;52.230;12.856;2023-08-12T08:29:12;23.80;62.90
15543;DHT22;7873;52.230;12.856;2023-08-12T08:31:40;23.60;63.30
15543;DHT22;7873;52.230;12.856;2023-08-12T08:34:07;23.60;63.80
15543;DHT22;7873;52.230;12.856;2023-08-12T08:36:35;23.70;64.00
15543;DHT22;7873;52.230;12.856;2023-08-12T08:39:02;23.70;63.80
15543;DHT22;7873;52.230;12.856;2023-08-12T08:41:29;23.80;63.40
15543;DHT22;7873;52.230;12.856;2023-08-12T08:43:58;23.80;63.50
15543;DHT22;7873;52.230;12.856;2023-08-12T08:46:28;23.80;63.00
15543;DHT22;7873;52.230;12.856;2023-08-12T08:48:56;24.00;62.10
15543;DHT22;7873;52.230;12.856;2023-08-12T08:51:25;24.00;63.00
15543;DHT22;7873;52.230;12.856;2023-08-12T08:53:52;24.00;62.00
15543;DHT22;7873;52.230;12.856;2023-08-12T08:56:21;24.00;62.80
15543;DHT22;7873;52.230;12.856;2023-08-12T08:58:48;24.10;61.70
15543;DHT22;7873;52.230;12.856;2023-08-12T09:01:15;24.10;61.90
15543;DHT22;7873;52.230;12.856;2023-08-12T09:03:44;24.10;61.70
15543;DHT22;7873;52.230;12.856;2023-08-12T09:06:13;24.10;61.40
15543;DHT22;7873;52.230;12.856;2023-08-12T09:08:40;24.10;61.80
15543;DHT22;7873;52.230;12.856;2023-08-12T09:11:11;24.30;61.30
15543;DHT22;7873;52.230;12.856;2023-08-12T09:13:39;24.30;61.00
15543;DHT22;7873;52.230;12.856;2023-08-12T09:16:05;24.20;60.70
15543;DHT22;7873;52.230;12.856;2023-08-12T09:18:32;24.20;61.50
15543;DHT22;7873;52.230;12.856;2023-08-12T09:20:59;24.30;61.70
15543;DHT22;7873;52.230;12.856;2023-08-12T09:23:27;24.30;62.40
15543;DHT22;7873;52.230;12.856;2023-08-12T09:25:54;24.30;62.70
15543;DHT22;7873;52.230;12.856;2023-08-12T09:28:21;24.30;62.80
15543;DHT22;7873;52.230;12.856;2023-08-12T09:30:49;24.30;63.20
15543;DHT22;7873;52.230;12.856;2023-08-12T09:33:18;24.30;63.60
15543;DHT22;7873;52.230;12.856;2023-08-12T09:35:51;24.40;62.90
15543;DHT22;7873;52.230;12.856;2023-08-12T09:38:18;24.40;62.90
15543;DHT22;7873;52.230;12.856;2023-08-12T09:40:46;24.40;63.00
15543;DHT22;7873;52.230;12.856;2023-08-12T09:43:14;24.30;62.90
15543;DHT22;7873;52.230;12.856;2023-08-12T09:45:43;24.30;63.20
15543;DHT22;7873;52.230;12.856;2023-08-12T09:48:10;24.30;63.30
15543;DHT22;7873;52.230;12.856;2023-08-12T09:50:37;24.40;63.10
15543;DHT22;7873;52.230;12.856;2023-08-12T09:53:04;24.40;64.80
15543;DHT22;7873;52.230;12.856;2023-08-12T09:55:31;24.40;63.70
15543;DHT22;7873;52.230;12.856;2023-08-12T09:58:03;24.40;63.90
15543;DHT22;7873;52.230;12.856;2023-08-12T10:00:32;24.40;64.10
15543;DHT22;7873;52.230;12.856;2023-08-12T10:03:00;24.50;63.50
15543;DHT22;7873;52.230;12.856;2023-08-12T10:05:28;24.50;64.00
15543;DHT22;7873;52.230;12.856;2023-08-12T10:07:57;24.50;63.70
15543;DHT22;7873;52.230;12.856;2023-08-12T10:10:27;24.60;64.00
15543;DHT22;7873;52.230;12.856;2023-08-12T10:12:53;24.60;64.40
15543;DHT22;7873;52.230;12.856;2023-08-12T10:15:22;24.60;64.00
15543;DHT22;7873;52.230;12.856;2023-08-12T10:17:48;24.60;63.40
15543;DHT22;7873;52.230;12.856;2023-08-12T10:20:19;24.70;62.90
15543;DHT22;7873;52.230;12.856;2023-08-12T10:22:47;24.60;62.60
15543;DHT22;7873;52.230;12.856;2023-08-12T10:25:15;24.70;62.70
15543;DHT22;7873;52.230;12.856;2023-08-12T10:27:44;24.60;62.90
15543;DHT22;7873;52.230;12.856;2023-08-12T10:30:12;24.70;62.30
15543;DHT22;7873;52.230;12.856;2023-08-12T10:32:40;24.60;62.70
15543;DHT22;7873;52.230;12.856;2023-08-12T10:35:08;24.60;62.60
15543;DHT22;7873;52.230;12.856;2023-08-12T10:37:35;24.70;62.30
15543;DHT22;7873;52.230;12.856;2023-08-12T10:40:03;24.80;62.30
15543;DHT22;7873;52.230;12.856;2023-08-12T10:42:42;24.80;62.40
15543;DHT22;7873;52.230;12.856;2023-08-12T10:45:10;24.80;62.60
15543;DHT22;7873;52.230;12.856;2023-08-12T10:47:40;24.80;63.00
15543;DHT22;7873;52.230;12.856;2023-08-12T10:50:16;24.80;63.00
15543;DHT22;7873;52.230;12.856;2023-08-12T10:52:44;24.80;62.70
15543;DHT22;7873;52.230;12.856;2023-08-12T10:55:18;24.80;63.20
15543;DHT22;7873;52.230;12.856;2023-08-12T10:57:47;24.60;63.20
15543;DHT22;7873;52.230;12.856;2023-08-12T11:00:14;24.70;63.70
15543;DHT22;7873;52.230;12.856;2023-08-12T11:02:48;24.80;63.50
15543;DHT22;7873;52.230;12.856;2023-08-12T11:05:16;24.90;64.20
15543;DHT22;7873;52.230;12.856;2023-08-12T11:07:45;24.80;64.60
15543;DHT22;7873;52.230;12.856;2023-08-12T11:10:15;24.60;66.30
15543;DHT22;7873;52.230;12.856;2023-08-12T11:12:49;24.40;67.90
15543;DHT22;7873;52.230;12.856;2023-08-12T11:15:28;24.40;67.20
15543;DHT22;7873;52.230;12.856;2023-08-12T11:17:58;24.60;66.70
15543;DHT22;7873;52.230;12.856;2023-08-12T11:20:25;24.50;66.60
15543;DHT22;7873;52.230;12.856;2023-08-12T11:22:54;24.60;66.00
15543;DHT22;7873;52.230;12.856;2023-08-12T11:25:21;24.70;65.70
15543;DHT22;7873;52.230;12.856;2023-08-12T11:27:48;24.60;65.10
15543;DHT22;7873;52.230;12.856;2023-08-12T11:30:15;24.60;65.10
15543;DHT22;7873;52.230;12.856;2023-08-12T11:32:44;24.60;64.80
15543;DHT22;7873;52.230;12.856;2023-08-12T11:35:13;24.60;65.30
15543;DHT22;7873;52.230;12.856;2023-08-12T11:37:41;24.60;65.00
15543;DHT22;7873;52.230;12.856;2023-08-12T11:40:09;24.50;64.60
15543;DHT22;7873;52.230;12.856;2023-08-12T11:42:40;24.50;65.10
15543;DHT22;7873;52.230;12.856;2023-08-12T11:45:07;24.40;65.40
15543;DHT22;7873;52.230;12.856;2023-08-12T11:47:35;24.40;66.60
15543;DHT22;7873;52.230;12.856;2023-08-12T11:50:02;24.50;65.90
15543;DHT22;7873;52.230;12.856;2023-08-12T11:52:31;24.50;66.70
15543;DHT22;7873;52.230;12.856;2023-08-12T11:54:58;24.50;67.10
15543;DHT22;7873;52.230;12.856;2023-08-12T11:57:25;24.50;67.10
15543;DHT22;7873;52.230;12.856;2023-08-12T11:59:53;24.50;67.10
15543;DHT22;7873;52.230;12.856;2023-08-12T12:02:24;24.60;68.10
15543;DHT22;7873;52.230;12.856;2023-08-12T12:04:51;24.60;67.60
15543;DHT22;7873;52.230;12.856;2023-08-12T12:07:19;24.60;68.00
15543;DHT22;7873;52.230;12.856;2023-08-12T12:09:49;24.60;67.70
15543;DHT22;7873;52.230;12.856;2023-08-12T12:12:17;24.60;67.20
15543;DHT22;7873;52.230;12.856;2023-08-12T12:14:46;24.60;67.10
15543;DHT22;7873;52.230;12.856;2023-08-12T12:17:14;24.80;66.30
15543;DHT22;7873;52.230;12.856;2023-08-12T12:19:41;24.80;65.90
15543;DHT22;7873;52.230;12.856;2023-08-12T12:22:08;24.70;66.20
15543;DHT22;7873;52.230;12.856;2023-08-12T12:24:43;24.60;66.70
15543;DHT22;7873;52.230;12.856;2023-08-12T12:27:12;24.70;66.10
15543;DHT22;7873;52.230;12.856;2023-08-12T12:29:40;24.80;65.80
15543;DHT22;7873;52.230;12.856;2023-08-12T12:32:06;24.90;65.70
15543;DHT22;7873;52.230;12.856;2023-08-12T12:34:34;24.90;65.40
15543;DHT22;7873;52.230;12.856;2023-08-12T12:37:00;25.00;64.80
15543;DHT22;7873;52.230;12.856;2023-08-12T12:39:27;25.00;64.60
15543;DHT22;7873;52.230;12.856;2023-08-12T12:41:54;25.00;65.10
15543;DHT22;7873;52.230;12.856;2023-08-12T12:44:22;24.90;65.50
15543;DHT22;7873;52.230;12.856;2023-08-12T12:46:48;25.00;65.00
15543;DHT22;7873;52.230;12.856;2023-08-12T12:49:15;25.00;65.20
15543;DHT22;7873;52.230;12.856;2023-08-12T12:51:42;25.00;65.60
15543;DHT22;7873;52.230;12.856;2023-08-12T12:54:08;25.00;65.60
15543;DHT22;7873;52.230;12.856;2023-08-12T12:56:35;25.00;65.30
15543;DHT22;7873;52.230;12.856;2023-08-12T12:59:02;25.00;64.60
15543;DHT22;7873;52.230;12.856;2023-08-12T13:01:30;25.00;64.30
15543;DHT22;7873;52.230;12.856;2023-08-12T13:03:57;25.00;63.60
15543;DHT22;7873;52.230;12.856;2023-08-12T13:06:23;25.00;63.40
15543;DHT22;7873;52.230;12.856;2023-08-12T13:08:50;25.00;63.80
15543;DHT22;7873;52.230;12.856;2023-08-12T13:11:17;25.00;63.60
15543;DHT22;7873;52.230;12.856;2023-08-12T13:13:43;24.90;63.90
15543;DHT22;7873;52.230;12.856;2023-08-12T13:16:10;25.00;63.70
15543;DHT22;7873;52.230;12.856;2023-08-12T13:18:38;25.10;63.40
15543;DHT22;7873;52.230;12.856;2023-08-12T13:21:05;25.20;63.40
15543;DHT22;7873;52.230;12.856;2023-08-12T13:23:31;25.20;63.70
15543;DHT22;7873;52.230;12.856;2023-08-12T13:25:58;25.20;63.40
15543;DHT22;7873;52.230;12.856;2023-08-12T13:28:25;25.20;63.70
15543;DHT22;7873;52.230;12.856;2023-08-12T13:30:51;25.20;63.70
15543;DHT22;7873;52.230;12.856;2023-08-12T13:33:18;25.20;64.40
15543;DHT22;7873;52.230;12.856;2023-08-12T13:35:46;25.30;63.80
15543;DHT22;7873;52.230;12.856;2023-08-12T13:38:13;25.20;63.60
15543;DHT22;7873;52.230;12.856;2023-08-12T13:40:39;25.20;63.20
15543;DHT22;7873;52.230;12.856;2023-08-12T13:43:06;25.30;62.50
15543;DHT22;7873;52.230;12.856;2023-08-12T13:45:33;25.30;62.40
15543;DHT22;7873;52.230;12.856;2023-08-12T13:47:59;25.30;62.50
15543;DHT22;7873;52.230;12.856;2023-08-12T13:50:26;25.30;61.80
15543;DHT22;7873;52.230;12.856;2023-08-12T13:52:54;25.30;61.40
15543;DHT22;7873;52.230;12.856;2023-08-12T13:55:21;25.40;61.50
15543;DHT22;7873;52.230;12.856;2023-08-12T13:57:48;25.30;61.50
15543;DHT22;7873;52.230;12.856;2023-08-12T14:00:14;25.40;61.80
15543;DHT22;7873;52.230;12.856;2023-08-12T14:02:41;25.40;61.20
15543;DHT22;7873;52.230;12.856;2023-08-12T14:05:09;25.50;60.60
15543;DHT22;7873;52.230;12.856;2023-08-12T14:07:36;25.60;60.60
15543;DHT22;7873;52.230;12.856;2023-08-12T14:10:05;25.60;60.30
15543;DHT22;7873;52.230;12.856;2023-08-12T14:12:33;25.70;59.90
15543;DHT22;7873;52.230;12.856;2023-08-12T14:15:00;25.60;61.20
15543;DHT22;7873;52.230;12.856;2023-08-12T14:17:27;25.50;61.40
15543;DHT22;7873;52.230;12.856;2023-08-12T14:19:54;25.40;61.40
15543;DHT22;7873;52.230;12.856;2023-08-12T14:22:21;25.40;62.30
15543;DHT22;7873;52.230;12.856;2023-08-12T14:24:47;25.40;62.70
15543;DHT22;7873;52.230;12.856;2023-08-12T14:27:15;25.30;63.10
15543;DHT22;7873;52.230;12.856;2023-08-12T14:29:43;25.30;63.10
15543;DHT22;7873;52.230;12.856;2023-08-12T14:32:10;25.30;63.40
15543;DHT22;7873;52.230;12.856;2023-08-12T14:34:37;25.30;63.10
15543;DHT22;7873;52.230;12.856;2023-08-12T14:37:04;25.40;63.30
15543;DHT22;7873;52.230;12.856;2023-08-12T14:39:32;25.50;63.10
15543;DHT22;7873;52.230;12.856;2023-08-12T14:41:59;25.50;63.10
15543;DHT22;7873;52.230;12.856;2023-08-12T14:44:27;25.50;63.20
15543;DHT22;7873;52.230;12.856;2023-08-12T14:46:54;25.50;63.00
15543;DHT22;7873;52.230;12.856;2023-08-12T14:49:20;25.50;63.10
15543;DHT22;7873;52.230;12.856;2023-08-12T14:51:47;25.50;63.20
15543;DHT22;7873;52.230;12.856;2023-08-12T14:54:13;25.60;62.90
15543;DHT22;7873;52.230;12.856;2023-08-12T14:56:40;25.60;62.80
15543;DHT22;7873;52.230;12.856;2023-08-12T14:59:07;25.70;62.00
15543;DHT22;7873;52.230;12.856;2023-08-12T15:01:35;25.60;62.10
15543;DHT22;7873;52.230;12.856;2023-08-12T15:04:02;25.60;61.40
15543;DHT22;7873;52.230;12.856;2023-08-12T15:06:28;25.60;61.80
15543;DHT22;7873;52.230;12.856;2023-08-12T15:08:55;25.60;61.70
15543;DHT22;7873;52.230;12.856;2023-08-12T15:11:22;25.60;61.50
15543;DHT22;7873;52.230;12.856;2023-08-12T15:13:49;25.60;61.50
15543;DHT22;7873;52.230;12.856;2023-08-12T15:16:15;25.60;61.50
15543;DHT22;7873;52.230;12.856;2023-08-12T15:18:43;25.70;61.20
15543;DHT22;7873;52.230;12.856;2023-08-12T15:21:10;25.70;60.90
15543;DHT22;7873;52.230;12.856;2023-08-12T15:23:37;25.70;60.80
15543;DHT22;7873;52.230;12.856;2023-08-12T15:26:03;25.80;60.70
15543;DHT22;7873;52.230;12.856;2023-08-12T15:28:30;25.80;60.30
15543;DHT22;7873;52.230;12.856;2023-08-12T15:30:57;25.90;60.10